sensor_id;sensor_type;location;lat;lon;timestamp;P1;durP1;ratioP1;P2;durP2;ratioP2
69053;SDS011;56125;52.242;4.756;2023-03-31T00:02:08;8.32;;;1.98;;
69053;SDS011;56125;52.242;4.756;2023-03-31T00:07:15;6.83;;;2.00;;
69053;SDS011;56125;52.242;4.756;2023-03-31T00:12:16;9.15;;;1.30;;
69053;SDS011;56125;52.242;4.756;2023-03-31T00:17:17;4.77;;;1.50;;
69053;SDS011;56125;52.242;4.756;2023-03-31T00:22:18;4.32;;;1.15;;
69053;SDS011;56125;52.242;4.756;2023-03-31T00:27:22;5.30;;;1.60;;
69053;SDS011;56125;52.242;4.756;2023-03-31T00:32:23;5.97;;;1.30;;
69053;SDS011;56125;52.242;4.756;2023-03-31T00:37:24;6.87;;;1.33;;
69053;SDS011;56125;52.242;4.756;2023-03-31T00:42:25;7.38;;;1.60;;
69053;SDS011;56125;52.242;4.756;2023-03-31T00:47:26;6.13;;;1.60;;
69053;SDS011;56125;52.242;4.756;2023-03-31T00:52:30;7.43;;;1.85;;
69053;SDS011;56125;52.242;4.756;2023-03-31T00:57:37;8.73;;;1.57;;
69053;SDS011;56125;52.242;4.756;2023-03-31T01:02:40;4.38;;;1.20;;
69053;SDS011;56125;52.242;4.756;2023-03-31T01:07:55;3.97;;;1.30;;
69053;SDS011;56125;52.242;4.756;2023-03-31T01:12:58;4.65;;;1.30;;
69053;SDS011;56125;52.242;4.756;2023-03-31T01:18:00;5.80;;;1.40;;
69053;SDS011;56125;52.242;4.756;2023-03-31T01:34:05;5.32;;;1.52;;
69053;SDS011;56125;52.242;4.756;2023-03-31T01:44:39;6.63;;;1.20;;
69053;SDS011;56125;52.242;4.756;2023-03-31T01:49:51;4.07;;;1.10;;
69053;SDS011;56125;52.242;4.756;2023-03-31T01:55:07;5.10;;;1.30;;
69053;SDS011;56125;52.242;4.756;2023-03-31T02:00:09;4.43;;;1.60;;
69053;SDS011;56125;52.242;4.756;2023-03-31T02:05:21;3.65;;;1.10;;
69053;SDS011;56125;52.242;4.756;2023-03-31T02:10:28;5.17;;;1.43;;
69053;SDS011;56125;52.242;4.756;2023-03-31T02:15:33;3.13;;;1.17;;
69053;SDS011;56125;52.242;4.756;2023-03-31T02:20:38;6.03;;;1.30;;
69053;SDS011;56125;52.242;4.756;2023-03-31T02:25:44;4.05;;;1.50;;
69053;SDS011;56125;52.242;4.756;2023-03-31T02:36:23;4.45;;;1.30;;
69053;SDS011;56125;52.242;4.756;2023-03-31T02:41:25;4.63;;;1.30;;
69053;SDS011;56125;52.242;4.756;2023-03-31T02:46:26;2.38;;;1.05;;
69053;SDS011;56125;52.242;4.756;2023-03-31T03:02:35;6.03;;;1.13;;
69053;SDS011;56125;52.242;4.756;2023-03-31T03:19:07;3.97;;;1.30;;
69053;SDS011;56125;52.242;4.756;2023-03-31T03:24:08;2.90;;;1.47;;
69053;SDS011;56125;52.242;4.756;2023-03-31T03:29:11;3.30;;;1.15;;
69053;SDS011;56125;52.242;4.756;2023-03-31T03:34:15;5.23;;;1.17;;
69053;SDS011;56125;52.242;4.756;2023-03-31T03:39:20;3.65;;;1.05;;
69053;SDS011;56125;52.242;4.756;2023-03-31T03:44:21;2.87;;;1.00;;
69053;SDS011;56125;52.242;4.756;2023-03-31T03:49:22;4.53;;;0.90;;
69053;SDS011;56125;52.242;4.756;2023-03-31T03:54:23;1.83;;;0.80;;
69053;SDS011;56125;52.242;4.756;2023-03-31T03:59:24;3.47;;;1.00;;
69053;SDS011;56125;52.242;4.756;2023-03-31T04:04:26;3.47;;;1.10;;
69053;SDS011;56125;52.242;4.756;2023-03-31T04:09:27;4.90;;;0.95;;
69053;SDS011;56125;52.242;4.756;2023-03-31T04:14:28;3.20;;;1.00;;
69053;SDS011;56125;52.242;4.756;2023-03-31T04:19:29;3.88;;;0.98;;
69053;SDS011;56125;52.242;4.756;2023-03-31T04:24:30;1.87;;;0.90;;
69053;SDS011;56125;52.242;4.756;2023-03-31T04:29:32;1.75;;;1.00;;
69053;SDS011;56125;52.242;4.756;2023-03-31T04:34:33;2.03;;;0.70;;
69053;SDS011;56125;52.242;4.756;2023-03-31T04:39:34;3.72;;;1.10;;
69053;SDS011;56125;52.242;4.756;2023-03-31T04:44:35;3.50;;;1.10;;
69053;SDS011;56125;52.242;4.756;2023-03-31T04:49:36;2.45;;;0.70;;
69053;SDS011;56125;52.242;4.756;2023-03-31T04:54:37;3.33;;;1.00;;
69053;SDS011;56125;52.242;4.756;2023-03-31T04:59:38;2.95;;;0.80;;
69053;SDS011;56125;52.242;4.756;2023-03-31T05:04:39;1.77;;;0.80;;
69053;SDS011;56125;52.242;4.756;2023-03-31T05:09:40;2.67;;;1.05;;
69053;SDS011;56125;52.242;4.756;2023-03-31T05:14:41;1.63;;;1.10;;
69053;SDS011;56125;52.242;4.756;2023-03-31T05:19:42;2.55;;;1.00;;
69053;SDS011;56125;52.242;4.756;2023-03-31T05:24:44;3.13;;;0.90;;
69053;SDS011;56125;52.242;4.756;2023-03-31T05:29:45;2.33;;;0.80;;
69053;SDS011;56125;52.242;4.756;2023-03-31T05:34:46;3.10;;;1.10;;
69053;SDS011;56125;52.242;4.756;2023-03-31T05:39:49;2.72;;;1.10;;
69053;SDS011;56125;52.242;4.756;2023-03-31T05:44:50;3.20;;;1.20;;
69053;SDS011;56125;52.242;4.756;2023-03-31T05:49:51;1.88;;;1.02;;
69053;SDS011;56125;52.242;4.756;2023-03-31T05:54:52;2.30;;;0.80;;
69053;SDS011;56125;52.242;4.756;2023-03-31T05:59:53;3.35;;;0.75;;
69053;SDS011;56125;52.242;4.756;2023-03-31T06:04:54;2.50;;;1.03;;
69053;SDS011;56125;52.242;4.756;2023-03-31T06:09:55;1.38;;;0.70;;
69053;SDS011;56125;52.242;4.756;2023-03-31T06:14:56;3.00;;;0.80;;
69053;SDS011;56125;52.242;4.756;2023-03-31T06:19:57;2.72;;;0.70;;
69053;SDS011;56125;52.242;4.756;2023-03-31T06:24:58;2.73;;;0.90;;
69053;SDS011;56125;52.242;4.756;2023-03-31T06:29:59;3.13;;;1.17;;
69053;SDS011;56125;52.242;4.756;2023-03-31T06:35:00;2.50;;;0.80;;
69053;SDS011;56125;52.242;4.756;2023-03-31T06:40:01;2.85;;;1.02;;
69053;SDS011;56125;52.242;4.756;2023-03-31T06:45:04;1.20;;;0.90;;
69053;SDS011;56125;52.242;4.756;2023-03-31T06:50:05;3.05;;;0.88;;
69053;SDS011;56125;52.242;4.756;2023-03-31T06:55:08;3.13;;;0.90;;
69053;SDS011;56125;52.242;4.756;2023-03-31T07:00:10;1.83;;;1.00;;
69053;SDS011;56125;52.242;4.756;2023-03-31T07:05:11;1.83;;;0.80;;
69053;SDS011;56125;52.242;4.756;2023-03-31T07:10:12;1.42;;;0.80;;
69053;SDS011;56125;52.242;4.756;2023-03-31T07:15:13;2.70;;;0.80;;
69053;SDS011;56125;52.242;4.756;2023-03-31T07:20:15;1.90;;;0.90;;
69053;SDS011;56125;52.242;4.756;2023-03-31T07:25:17;2.23;;;0.93;;
69053;SDS011;56125;52.242;4.756;2023-03-31T07:30:18;2.70;;;0.82;;
69053;SDS011;56125;52.242;4.756;2023-03-31T07:35:20;2.30;;;0.60;;
69053;SDS011;56125;52.242;4.756;2023-03-31T07:40:24;2.45;;;0.82;;
69053;SDS011;56125;52.242;4.756;2023-03-31T07:45:27;1.47;;;0.90;;
69053;SDS011;56125;52.242;4.756;2023-03-31T07:50:28;2.92;;;1.10;;
69053;SDS011;56125;52.242;4.756;2023-03-31T07:55:29;1.50;;;0.70;;
69053;SDS011;56125;52.242;4.756;2023-03-31T08:00:30;1.77;;;0.70;;
69053;SDS011;56125;52.242;4.756;2023-03-31T08:05:32;1.20;;;0.63;;
69053;SDS011;56125;52.242;4.756;2023-03-31T08:10:33;3.10;;;0.90;;
69053;SDS011;56125;52.242;4.756;2023-03-31T08:15:34;2.60;;;1.10;;
69053;SDS011;56125;52.242;4.756;2023-03-31T08:20:35;3.10;;;1.10;;
69053;SDS011;56125;52.242;4.756;2023-03-31T08:25:36;4.30;;;1.10;;
69053;SDS011;56125;52.242;4.756;2023-03-31T08:30:37;3.30;;;1.20;;
69053;SDS011;56125;52.242;4.756;2023-03-31T08:35:38;1.90;;;0.90;;
69053;SDS011;56125;52.242;4.756;2023-03-31T08:40:39;2.92;;;1.08;;
69053;SDS011;56125;52.242;4.756;2023-03-31T08:45:41;2.53;;;1.07;;
69053;SDS011;56125;52.242;4.756;2023-03-31T08:50:46;3.78;;;1.20;;
69053;SDS011;56125;52.242;4.756;2023-03-31T08:55:52;2.50;;;1.00;;
69053;SDS011;56125;52.242;4.756;2023-03-31T09:01:03;1.92;;;1.00;;
69053;SDS011;56125;52.242;4.756;2023-03-31T09:06:07;3.60;;;1.13;;
69053;SDS011;56125;52.242;4.756;2023-03-31T09:11:31;5.30;;;1.13;;
69053;SDS011;56125;52.242;4.756;2023-03-31T09:16:40;1.50;;;0.70;;
69053;SDS011;56125;52.242;4.756;2023-03-31T09:21:51;4.22;;;1.23;;
69053;SDS011;56125;52.242;4.756;2023-03-31T09:27:00;2.67;;;1.03;;
69053;SDS011;56125;52.242;4.756;2023-03-31T09:32:15;2.00;;;1.00;;
69053;SDS011;56125;52.242;4.756;2023-03-31T09:37:21;2.83;;;1.50;;
69053;SDS011;56125;52.242;4.756;2023-03-31T09:42:24;2.28;;;0.88;;
69053;SDS011;56125;52.242;4.756;2023-03-31T09:47:28;4.33;;;1.30;;
69053;SDS011;56125;52.242;4.756;2023-03-31T09:52:51;2.08;;;0.95;;
69053;SDS011;56125;52.242;4.756;2023-03-31T09:57:55;4.27;;;1.20;;
69053;SDS011;56125;52.242;4.756;2023-03-31T10:02:56;2.78;;;0.90;;
69053;SDS011;56125;52.242;4.756;2023-03-31T10:13:18;6.97;;;1.48;;
69053;SDS011;56125;52.242;4.756;2023-03-31T10:18:22;5.03;;;1.50;;
69053;SDS011;56125;52.242;4.756;2023-03-31T10:23:33;5.13;;;1.30;;
69053;SDS011;56125;52.242;4.756;2023-03-31T10:28:35;4.83;;;1.20;;
69053;SDS011;56125;52.242;4.756;2023-03-31T10:33:39;5.15;;;1.30;;
69053;SDS011;56125;52.242;4.756;2023-03-31T10:38:44;3.57;;;1.37;;
69053;SDS011;56125;52.242;4.756;2023-03-31T10:43:48;2.85;;;1.50;;
69053;SDS011;56125;52.242;4.756;2023-03-31T10:48:51;3.97;;;1.10;;
69053;SDS011;56125;52.242;4.756;2023-03-31T10:53:53;3.00;;;1.10;;
69053;SDS011;56125;52.242;4.756;2023-03-31T10:59:12;4.03;;;1.37;;
69053;SDS011;56125;52.242;4.756;2023-03-31T11:14:51;6.63;;;2.75;;
69053;SDS011;56125;52.242;4.756;2023-03-31T11:20:17;3.13;;;1.13;;
69053;SDS011;56125;52.242;4.756;2023-03-31T11:25:33;3.53;;;1.10;;
69053;SDS011;56125;52.242;4.756;2023-03-31T11:30:49;3.37;;;1.00;;
69053;SDS011;56125;52.242;4.756;2023-03-31T11:35:55;4.35;;;1.13;;
69053;SDS011;56125;52.242;4.756;2023-03-31T11:41:10;3.67;;;1.20;;
69053;SDS011;56125;52.242;4.756;2023-03-31T11:51:43;2.70;;;1.00;;
69053;SDS011;56125;52.242;4.756;2023-03-31T11:56:46;2.58;;;0.93;;
69053;SDS011;56125;52.242;4.756;2023-03-31T12:07:23;4.35;;;1.30;;
69053;SDS011;56125;52.242;4.756;2023-03-31T12:12:34;4.20;;;0.80;;
69053;SDS011;56125;52.242;4.756;2023-03-31T12:17:42;3.35;;;1.20;;
69053;SDS011;56125;52.242;4.756;2023-03-31T12:22:48;3.73;;;1.00;;
69053;SDS011;56125;52.242;4.756;2023-03-31T12:27:49;3.00;;;1.17;;
69053;SDS011;56125;52.242;4.756;2023-03-31T12:32:55;5.03;;;1.20;;
69053;SDS011;56125;52.242;4.756;2023-03-31T12:38:10;1.92;;;0.80;;
69053;SDS011;56125;52.242;4.756;2023-03-31T12:43:40;3.67;;;0.90;;
69053;SDS011;56125;52.242;4.756;2023-03-31T12:48:56;1.55;;;0.70;;
69053;SDS011;56125;52.242;4.756;2023-03-31T12:54:20;3.83;;;0.90;;
69053;SDS011;56125;52.242;4.756;2023-03-31T12:59:36;3.72;;;1.00;;
69053;SDS011;56125;52.242;4.756;2023-03-31T13:04:40;3.43;;;1.13;;
69053;SDS011;56125;52.242;4.756;2023-03-31T13:09:43;3.55;;;1.00;;
69053;SDS011;56125;52.242;4.756;2023-03-31T13:14:47;2.57;;;1.10;;
69053;SDS011;56125;52.242;4.756;2023-03-31T13:19:54;3.17;;;1.00;;
69053;SDS011;56125;52.242;4.756;2023-03-31T13:35:36;2.63;;;1.20;;
69053;SDS011;56125;52.242;4.756;2023-03-31T13:51:14;2.20;;;0.80;;
69053;SDS011;56125;52.242;4.756;2023-03-31T14:07:07;2.23;;;0.80;;
69053;SDS011;56125;52.242;4.756;2023-03-31T14:12:19;1.35;;;0.85;;
69053;SDS011;56125;52.242;4.756;2023-03-31T14:17:24;2.97;;;0.90;;
69053;SDS011;56125;52.242;4.756;2023-03-31T14:27:59;1.53;;;1.00;;
69053;SDS011;56125;52.242;4.756;2023-03-31T14:33:26;1.83;;;0.70;;
69053;SDS011;56125;52.242;4.756;2023-03-31T14:38:36;2.70;;;0.93;;
69053;SDS011;56125;52.242;4.756;2023-03-31T14:43:38;1.98;;;0.80;;
69053;SDS011;56125;52.242;4.756;2023-03-31T14:48:45;2.57;;;0.97;;
69053;SDS011;56125;52.242;4.756;2023-03-31T14:53:47;1.48;;;0.80;;
69053;SDS011;56125;52.242;4.756;2023-03-31T14:58:55;1.37;;;0.83;;
69053;SDS011;56125;52.242;4.756;2023-03-31T15:03:57;2.35;;;0.80;;
69053;SDS011;56125;52.242;4.756;2023-03-31T15:08:59;2.40;;;0.80;;
69053;SDS011;56125;52.242;4.756;2023-03-31T15:14:03;1.55;;;0.88;;
69053;SDS011;56125;52.242;4.756;2023-03-31T15:19:06;1.23;;;0.80;;
69053;SDS011;56125;52.242;4.756;2023-03-31T15:24:13;1.30;;;0.80;;
69053;SDS011;56125;52.242;4.756;2023-03-31T15:34:21;2.63;;;1.00;;
69053;SDS011;56125;52.242;4.756;2023-03-31T15:39:29;2.60;;;0.90;;
69053;SDS011;56125;52.242;4.756;2023-03-31T15:44:42;1.27;;;0.70;;
69053;SDS011;56125;52.242;4.756;2023-03-31T15:49:51;1.30;;;0.80;;
69053;SDS011;56125;52.242;4.756;2023-03-31T15:54:57;2.35;;;0.85;;
69053;SDS011;56125;52.242;4.756;2023-03-31T16:00:00;2.47;;;0.80;;
69053;SDS011;56125;52.242;4.756;2023-03-31T16:05:03;1.20;;;0.70;;
69053;SDS011;56125;52.242;4.756;2023-03-31T16:10:13;2.43;;;1.10;;
69053;SDS011;56125;52.242;4.756;2023-03-31T16:15:19;3.60;;;1.10;;
69053;SDS011;56125;52.242;4.756;2023-03-31T16:20:30;1.17;;;0.80;;
69053;SDS011;56125;52.242;4.756;2023-03-31T16:25:38;2.78;;;1.08;;
69053;SDS011;56125;52.242;4.756;2023-03-31T16:30:40;2.97;;;0.80;;
69053;SDS011;56125;52.242;4.756;2023-03-31T16:35:47;1.65;;;0.70;;
69053;SDS011;56125;52.242;4.756;2023-03-31T16:40:57;1.67;;;0.93;;
69053;SDS011;56125;52.242;4.756;2023-03-31T16:45:59;1.42;;;0.80;;
69053;SDS011;56125;52.242;4.756;2023-03-31T16:51:03;1.10;;;0.67;;
69053;SDS011;56125;52.242;4.756;2023-03-31T16:56:05;3.78;;;1.00;;
69053;SDS011;56125;52.242;4.756;2023-03-31T17:01:07;1.23;;;0.80;;
69053;SDS011;56125;52.242;4.756;2023-03-31T17:06:11;1.00;;;0.70;;
69053;SDS011;56125;52.242;4.756;2023-03-31T17:11:12;1.53;;;0.80;;
69053;SDS011;56125;52.242;4.756;2023-03-31T17:16:14;1.00;;;0.60;;
69053;SDS011;56125;52.242;4.756;2023-03-31T17:21:17;2.80;;;0.90;;
69053;SDS011;56125;52.242;4.756;2023-03-31T17:26:18;1.38;;;0.70;;
69053;SDS011;56125;52.242;4.756;2023-03-31T17:31:20;1.20;;;0.80;;
69053;SDS011;56125;52.242;4.756;2023-03-31T17:36:21;1.23;;;0.70;;
69053;SDS011;56125;52.242;4.756;2023-03-31T17:41:22;1.40;;;0.80;;
69053;SDS011;56125;52.242;4.756;2023-03-31T17:46:23;1.85;;;0.70;;
69053;SDS011;56125;52.242;4.756;2023-03-31T17:51:24;1.27;;;0.97;;
69053;SDS011;56125;52.242;4.756;2023-03-31T17:56:26;1.15;;;0.60;;
69053;SDS011;56125;52.242;4.756;2023-03-31T18:01:27;1.47;;;0.90;;
69053;SDS011;56125;52.242;4.756;2023-03-31T18:06:28;1.65;;;0.73;;
69053;SDS011;56125;52.242;4.756;2023-03-31T18:11:29;1.47;;;0.83;;
69053;SDS011;56125;52.242;4.756;2023-03-31T18:16:31;2.50;;;0.80;;
69053;SDS011;56125;52.242;4.756;2023-03-31T18:21:34;0.87;;;0.67;;
69053;SDS011;56125;52.242;4.756;2023-03-31T18:26:36;1.30;;;0.90;;
69053;SDS011;56125;52.242;4.756;2023-03-31T18:31:37;3.70;;;1.10;;
69053;SDS011;56125;52.242;4.756;2023-03-31T18:36:38;1.67;;;0.80;;
69053;SDS011;56125;52.242;4.756;2023-03-31T18:41:41;2.47;;;0.80;;
69053;SDS011;56125;52.242;4.756;2023-03-31T18:46:45;2.25;;;0.88;;
69053;SDS011;56125;52.242;4.756;2023-03-31T18:51:46;2.20;;;1.00;;
69053;SDS011;56125;52.242;4.756;2023-03-31T18:56:47;2.28;;;0.85;;
69053;SDS011;56125;52.242;4.756;2023-03-31T19:01:48;4.97;;;1.40;;
69053;SDS011;56125;52.242;4.756;2023-03-31T19:06:49;2.72;;;0.88;;
69053;SDS011;56125;52.242;4.756;2023-03-31T19:11:51;1.57;;;0.70;;
69053;SDS011;56125;52.242;4.756;2023-03-31T19:16:53;1.83;;;0.80;;
69053;SDS011;56125;52.242;4.756;2023-03-31T19:21:54;3.70;;;0.80;;
69053;SDS011;56125;52.242;4.756;2023-03-31T19:26:55;1.73;;;0.70;;
69053;SDS011;56125;52.242;4.756;2023-03-31T19:31:57;2.80;;;1.03;;
69053;SDS011;56125;52.242;4.756;2023-03-31T19:36:58;2.75;;;0.82;;
69053;SDS011;56125;52.242;4.756;2023-03-31T19:42:01;3.13;;;1.00;;
69053;SDS011;56125;52.242;4.756;2023-03-31T19:47:02;3.85;;;1.05;;
69053;SDS011;56125;52.242;4.756;2023-03-31T19:52:04;1.70;;;0.93;;
69053;SDS011;56125;52.242;4.756;2023-03-31T19:57:05;2.85;;;1.10;;
69053;SDS011;56125;52.242;4.756;2023-03-31T20:02:09;4.87;;;1.00;;
69053;SDS011;56125;52.242;4.756;2023-03-31T20:07:12;2.53;;;1.13;;
69053;SDS011;56125;52.242;4.756;2023-03-31T20:12:13;2.40;;;0.93;;
69053;SDS011;56125;52.242;4.756;2023-03-31T20:17:14;2.97;;;1.23;;
69053;SDS011;56125;52.242;4.756;2023-03-31T20:22:16;1.70;;;0.90;;
69053;SDS011;56125;52.242;4.756;2023-03-31T20:27:17;2.10;;;1.15;;
69053;SDS011;56125;52.242;4.756;2023-03-31T20:32:18;3.27;;;1.20;;
69053;SDS011;56125;52.242;4.756;2023-03-31T20:37:19;2.67;;;1.20;;
69053;SDS011;56125;52.242;4.756;2023-03-31T20:42:20;2.57;;;1.03;;
69053;SDS011;56125;52.242;4.756;2023-03-31T20:47:21;2.03;;;0.90;;
69053;SDS011;56125;52.242;4.756;2023-03-31T20:52:22;1.43;;;0.80;;
69053;SDS011;56125;52.242;4.756;2023-03-31T20:57:23;5.20;;;1.33;;
69053;SDS011;56125;52.242;4.756;2023-03-31T21:02:25;2.57;;;1.17;;
69053;SDS011;56125;52.242;4.756;2023-03-31T21:07:26;3.50;;;1.15;;
69053;SDS011;56125;52.242;4.756;2023-03-31T21:12:28;3.93;;;1.00;;
69053;SDS011;56125;52.242;4.756;2023-03-31T21:17:29;3.30;;;1.10;;
69053;SDS011;56125;52.242;4.756;2023-03-31T21:22:30;3.90;;;1.40;;
69053;SDS011;56125;52.242;4.756;2023-03-31T21:27:31;4.03;;;1.00;;
69053;SDS011;56125;52.242;4.756;2023-03-31T21:32:32;4.13;;;1.00;;
69053;SDS011;56125;52.242;4.756;2023-03-31T21:37:33;4.28;;;1.50;;
69053;SDS011;56125;52.242;4.756;2023-03-31T21:42:36;5.23;;;1.43;;
69053;SDS011;56125;52.242;4.756;2023-03-31T21:47:37;2.72;;;1.35;;
69053;SDS011;56125;52.242;4.756;2023-03-31T21:52:38;3.97;;;1.30;;
69053;SDS011;56125;52.242;4.756;2023-03-31T21:57:39;3.72;;;1.02;;
69053;SDS011;56125;52.242;4.756;2023-03-31T22:02:40;3.97;;;1.50;;
69053;SDS011;56125;52.242;4.756;2023-03-31T22:07:42;3.70;;;1.58;;
69053;SDS011;56125;52.242;4.756;2023-03-31T22:12:43;3.27;;;1.17;;
69053;SDS011;56125;52.242;4.756;2023-03-31T22:17:44;4.07;;;1.60;;
69053;SDS011;56125;52.242;4.756;2023-03-31T22:22:45;3.20;;;1.30;;
69053;SDS011;56125;52.242;4.756;2023-03-31T22:27:46;4.70;;;1.33;;
69053;SDS011;56125;52.242;4.756;2023-03-31T22:32:47;4.60;;;1.30;;
69053;SDS011;56125;52.242;4.756;2023-03-31T22:37:49;4.15;;;1.65;;
69053;SDS011;56125;52.242;4.756;2023-03-31T22:42:50;4.53;;;1.40;;
69053;SDS011;56125;52.242;4.756;2023-03-31T22:47:54;5.22;;;1.40;;
69053;SDS011;56125;52.242;4.756;2023-03-31T22:52:55;3.37;;;1.20;;
69053;SDS011;56125;52.242;4.756;2023-03-31T22:57:56;5.88;;;1.42;;
69053;SDS011;56125;52.242;4.756;2023-03-31T23:02:57;5.50;;;1.43;;
69053;SDS011;56125;52.242;4.756;2023-03-31T23:07:58;3.72;;;1.33;;
69053;SDS011;56125;52.242;4.756;2023-03-31T23:13:00;4.50;;;1.60;;
69053;SDS011;56125;52.242;4.756;2023-03-31T23:18:01;4.72;;;1.20;;
69053;SDS011;56125;52.242;4.756;2023-03-31T23:23:02;4.07;;;1.57;;
69053;SDS011;56125;52.242;4.756;2023-03-31T23:28:03;6.53;;;1.52;;
69053;SDS011;56125;52.242;4.756;2023-03-31T23:33:05;5.07;;;1.70;;
69053;SDS011;56125;52.242;4.756;2023-03-31T23:38:06;6.97;;;1.80;;
69053;SDS011;56125;52.242;4.756;2023-03-31T23:43:07;4.87;;;1.60;;
69053;SDS011;56125;52.242;4.756;2023-03-31T23:48:08;6.43;;;2.03;;
69053;SDS011;56125;52.242;4.756;2023-03-31T23:53:09;8.33;;;2.00;;
69053;SDS011;56125;52.242;4.756;2023-03-31T23:58:11;7.82;;;2.25;;
